createdAt,value
2019-02-02T00:02:45.714Z,100880.63
2019-02-02T00:06:48.203Z,100868.48
2019-02-02T00:10:50.764Z,100865.45
2019-02-02T00:14:53.259Z,100864.97
2019-02-02T00:18:55.857Z,100861.06
2019-02-02T00:22:58.706Z,100864.97
2019-02-02T00:27:01.195Z,100858.03
2019-02-02T00:31:03.749Z,100856.30
2019-02-02T00:35:06.459Z,100862.80
2019-02-02T00:39:11.511Z,100869.25
2019-02-02T00:43:14.225Z,100862.75
2019-02-02T00:47:16.812Z,100860.58
2019-02-02T00:51:19.487Z,100858.02
2019-02-02T00:55:22.430Z,100868.81
2019-02-02T00:59:25.046Z,100870.11
2019-02-02T01:03:27.667Z,100872.66
2019-02-02T01:07:30.262Z,100877.81
2019-02-02T01:11:33.077Z,100881.28
2019-02-02T01:15:35.844Z,100881.27
2019-02-02T01:19:38.326Z,100876.12
2019-02-02T01:23:40.979Z,100881.32
2019-02-02T01:27:43.612Z,100876.52
2019-02-02T01:31:46.108Z,100876.08
2019-02-02T01:35:48.540Z,100867.41
2019-02-02T01:39:51.026Z,100867.03
2019-02-02T01:43:53.576Z,100875.69
2019-02-02T01:47:57.293Z,100878.73
2019-02-02T01:51:59.828Z,100882.63
2019-02-02T01:56:02.318Z,100883.94
2019-02-02T02:00:05.212Z,100883.11
2019-02-02T02:04:08.236Z,100881.76
2019-02-02T02:08:10.776Z,100879.59
2019-02-02T02:12:13.511Z,100870.06
2019-02-02T02:16:16.336Z,100869.62
2019-02-02T02:20:19.466Z,100863.55
2019-02-02T02:24:22.095Z,100869.62
2019-02-02T02:28:28.152Z,100873.91
2019-02-02T02:32:28.752Z,100873.91
2019-02-02T02:36:31.381Z,100874.81
2019-02-02T02:40:33.915Z,100879.11
2019-02-02T02:44:36.398Z,100874.81
2019-02-02T02:48:39.004Z,100870.87
2019-02-02T02:52:41.500Z,100867.83
2019-02-02T02:56:43.940Z,100868.70
2019-02-02T03:00:46.463Z,100868.26
2019-02-02T03:04:48.898Z,100861.70
2019-02-02T03:08:51.397Z,100866.04
2019-02-02T03:12:54.154Z,100864.30
2019-02-02T03:16:56.711Z,100855.15
2019-02-02T03:20:59.139Z,100855.14
2019-02-02T03:25:01.700Z,100865.05
2019-02-02T03:29:04.127Z,100867.17
2019-02-02T03:33:06.759Z,100856.28
2019-02-02T03:37:09.329Z,100855.83
2019-02-02T03:41:11.831Z,100847.96
2019-02-02T03:45:16.694Z,100854.84
2019-02-02T03:49:19.282Z,100848.72
2019-02-02T03:53:21.720Z,100860.37
2019-02-02T03:57:25.608Z,100857.72
2019-02-02T04:01:30.212Z,100854.62
2019-02-02T04:05:32.554Z,100835.03
2019-02-02T04:09:34.981Z,100830.20
2019-02-02T04:13:37.464Z,100826.23
2019-02-02T04:17:40.155Z,100831.80
2019-02-02T04:21:42.621Z,100839.16
2019-02-02T04:25:46.808Z,100829.98
2019-02-02T04:29:49.332Z,100840.72
2019-02-02T04:33:51.743Z,100834.16
2019-02-02T04:37:54.566Z,100824.11
2019-02-02T04:41:56.968Z,100826.21
2019-02-02T04:45:59.648Z,100827.43
2019-02-02T04:50:02.316Z,100825.22
2019-02-02T04:54:04.938Z,100826.92
2019-02-02T04:58:07.588Z,100816.87
2019-02-02T05:02:10.552Z,100835.04
2019-02-02T05:06:12.962Z,100832.81
2019-02-02T05:10:18.069Z,100812.84
2019-02-02T05:14:20.532Z,100813.63
2019-02-02T05:18:24.302Z,100840.05
2019-02-02T05:22:26.698Z,100852.56
2019-02-02T05:26:29.618Z,100845.12
2019-02-02T05:30:32.764Z,100835.95
2019-02-02T05:34:35.340Z,100834.65
2019-02-02T05:38:37.894Z,100840.64
2019-02-02T05:42:40.367Z,100838.41
2019-02-02T05:46:42.800Z,100837.05
2019-02-02T05:50:45.367Z,100840.45
2019-02-02T05:54:47.751Z,100838.20
2019-02-02T05:58:50.252Z,100849.42
2019-02-02T06:02:52.810Z,100832.47
2019-02-02T06:06:55.267Z,100824.58
2019-02-02T06:10:57.875Z,100834.92
2019-02-02T06:15:00.315Z,100846.14
2019-02-02T06:19:02.732Z,100862.96
2019-02-02T06:23:05.329Z,100866.36
2019-02-02T06:27:08.027Z,100864.61
2019-02-02T06:31:10.572Z,100871.88
2019-02-02T06:35:14.524Z,100870.42
2019-02-02T06:39:17.123Z,100868.16
2019-02-02T06:43:19.665Z,100866.70
2019-02-02T06:47:23.351Z,100862.16
2019-02-02T06:51:25.799Z,100877.20
2019-02-02T06:55:28.625Z,100887.07
2019-02-02T06:59:31.063Z,100875.58
2019-02-02T07:03:33.671Z,100879.77
2019-02-02T07:07:36.225Z,100873.95
2019-02-02T07:11:38.827Z,100869.91
2019-02-02T07:15:41.269Z,100870.66
2019-02-02T07:19:43.776Z,100864.52
2019-02-02T07:23:46.198Z,100867.41
2019-02-02T07:27:50.263Z,100874.34
2019-02-02T07:31:52.692Z,100877.67
2019-02-02T07:35:55.156Z,100871.14
2019-02-02T07:39:57.784Z,100882.75
2019-02-02T07:44:00.269Z,100875.70
2019-02-02T07:48:02.801Z,100872.05
2019-02-02T07:52:05.494Z,100868.53
2019-02-02T07:56:08.190Z,100869.28
2019-02-02T08:00:17.688Z,100867.88
2019-02-02T08:04:20.190Z,100863.08
2019-02-02T08:08:22.692Z,100843.91
2019-02-02T08:12:25.178Z,100852.12
2019-02-02T08:16:27.698Z,100856.02
2019-02-02T08:20:30.252Z,100857.66
2019-02-02T08:24:32.808Z,100869.77
2019-02-02T08:28:35.392Z,100877.61
2019-02-02T08:32:37.864Z,100869.68
2019-02-02T08:36:40.358Z,100883.10
2019-02-02T08:40:43.128Z,100877.37
2019-02-02T08:44:45.596Z,100885.13
2019-02-02T08:48:48.064Z,100883.38
2019-02-02T08:52:50.485Z,100885.90
2019-02-02T08:56:52.989Z,100894.57
2019-02-02T09:01:03.842Z,100897.56
2019-02-02T09:04:59.844Z,100893.17
2019-02-02T09:09:02.445Z,100895.13
2019-02-02T09:13:06.988Z,100904.25
2019-02-02T09:17:09.621Z,100904.67
2019-02-02T09:21:13.502Z,100914.64
2019-02-02T09:25:17.079Z,100916.05
2019-02-02T09:29:19.995Z,100922.64
2019-02-02T09:33:22.438Z,100923.44
2019-02-02T09:37:25.055Z,100910.88
2019-02-02T09:41:27.632Z,100914.44
2019-02-02T09:45:30.091Z,100921.77
2019-02-02T09:49:32.810Z,100919.22
2019-02-02T09:53:35.287Z,100908.70
2019-02-02T09:57:37.820Z,100904.77
2019-02-02T10:01:40.584Z,100910.73
2019-02-02T10:05:43.017Z,100905.83
2019-02-02T10:09:45.611Z,100904.34
2019-02-02T10:13:48.046Z,100898.05
2019-02-02T10:17:50.748Z,100889.48
2019-02-02T10:21:53.306Z,100893.31
2019-02-02T10:25:55.823Z,100889.83
2019-02-02T10:29:58.297Z,100885.76
2019-02-02T10:34:00.833Z,100886.52
2019-02-02T10:38:03.375Z,100879.89
2019-02-02T10:42:05.889Z,100885.54
2019-02-02T10:46:10.737Z,100886.34
2019-02-02T10:50:14.347Z,100892.61
2019-02-02T10:54:16.758Z,100894.34
2019-02-02T10:58:19.378Z,100883.53
2019-02-02T11:02:23.929Z,100883.11
2019-02-02T11:06:26.399Z,100873.89
2019-02-02T11:10:31.331Z,100874.73
2019-02-02T11:14:33.941Z,100879.09
2019-02-02T11:18:36.458Z,100873.89
2019-02-02T11:22:39.289Z,100879.12
2019-02-02T11:26:41.925Z,100868.57
2019-02-02T11:30:44.597Z,100872.88
2019-02-02T11:34:47.178Z,100861.05
2019-02-02T11:38:49.736Z,100857.44
2019-02-02T11:42:52.395Z,100854.47
2019-02-02T11:46:54.932Z,100853.64
2019-02-02T11:50:57.433Z,100852.78
2019-02-02T11:54:59.955Z,100846.21
2019-02-02T11:59:04.034Z,100831.28
2019-02-02T12:03:07.147Z,100815.69
2019-02-02T12:07:09.828Z,100811.16
2019-02-02T12:11:12.364Z,100810.26
2019-02-02T12:15:18.088Z,100810.30
2019-02-02T12:19:20.556Z,100806.78
2019-02-02T12:23:23.006Z,100819.55
2019-02-02T12:27:25.481Z,100795.21
2019-02-02T12:31:28.011Z,100810.05
2019-02-02T12:35:30.850Z,100818.50
2019-02-02T12:39:33.360Z,100815.12
2019-02-02T12:43:36.035Z,100812.53
2019-02-02T12:47:38.451Z,100809.89
2019-02-02T12:51:41.069Z,100803.38
2019-02-02T12:55:43.690Z,100792.09
2019-02-02T12:59:46.191Z,100790.69
2019-02-02T13:04:01.167Z,100783.42
2019-02-02T13:07:55.775Z,100779.13
2019-02-02T13:11:58.317Z,100773.52
2019-02-02T13:16:00.779Z,100772.72
2019-02-02T13:20:03.419Z,100774.12
2019-02-02T13:24:06.623Z,100778.05
2019-02-02T13:28:09.174Z,100774.16
2019-02-02T13:32:12.859Z,100779.86
2019-02-02T13:36:15.420Z,100785.92
2019-02-02T13:40:19.961Z,100778.55
2019-02-02T13:44:22.487Z,100794.69
2019-02-02T13:48:25.190Z,100803.48
2019-02-02T13:52:27.617Z,100800.11
2019-02-02T13:56:30.218Z,100804.50
2019-02-02T14:00:33.405Z,100798.55
2019-02-02T14:04:36.191Z,100802.94
2019-02-02T14:08:38.844Z,100796.47
2019-02-02T14:12:41.433Z,100784.36
2019-02-02T14:16:43.836Z,100782.67
2019-02-02T14:20:48.342Z,100777.09
2019-02-02T14:24:50.771Z,100774.03
2019-02-02T14:28:53.269Z,100768.01
2019-02-02T14:32:55.835Z,100756.28
2019-02-02T14:36:58.423Z,100761.12
2019-02-02T14:41:00.988Z,100763.83
2019-02-02T14:45:05.636Z,100764.72
2019-02-02T14:49:09.566Z,100772.59
2019-02-02T14:53:12.131Z,100784.83
2019-02-02T14:57:14.559Z,100793.50
2019-02-02T15:01:17.057Z,100787.70
2019-02-02T15:05:22.081Z,100792.19
2019-02-02T15:09:26.192Z,100799.11
2019-02-02T15:13:29.114Z,100809.14
2019-02-02T15:17:31.862Z,100804.33
2019-02-02T15:21:34.256Z,100808.73
2019-02-02T15:25:36.920Z,100814.37
2019-02-02T15:29:39.395Z,100819.17
2019-02-02T15:33:41.991Z,100816.53
2019-02-02T15:37:44.519Z,100805.22
2019-02-02T15:41:52.938Z,100792.66
2019-02-02T15:45:51.189Z,100786.13
2019-02-02T15:49:56.170Z,100794.80
2019-02-02T15:53:58.651Z,100789.19
2019-02-02T15:58:01.292Z,100807.03
2019-02-02T16:02:04.190Z,100794.86
2019-02-02T16:06:06.925Z,100806.63
2019-02-02T16:10:15.229Z,100803.12
2019-02-02T16:14:16.762Z,100793.97
2019-02-02T16:18:19.312Z,100790.94
2019-02-02T16:22:21.887Z,100784.44
2019-02-02T16:26:24.412Z,100785.30
2019-02-02T16:30:28.622Z,100795.31
2019-02-02T16:34:31.072Z,100787.91
2019-02-02T16:38:33.637Z,100788.36
2019-02-02T16:42:38.058Z,100777.91
2019-02-02T16:46:42.455Z,100781.00
2019-02-02T16:50:46.456Z,100779.22
2019-02-02T16:54:50.495Z,100781.45
2019-02-02T16:58:54.702Z,100775.30
2019-02-02T17:02:58.434Z,100768.31
2019-02-02T17:07:01.412Z,100787.05
2019-02-02T17:11:05.862Z,100780.94
2019-02-02T17:15:10.950Z,100772.66
2019-02-02T17:19:15.967Z,100773.95
2019-02-02T17:23:21.156Z,100773.52
2019-02-02T17:27:25.416Z,100768.67
2019-02-02T17:31:29.287Z,100759.59
2019-02-02T17:35:33.773Z,100754.72
2019-02-02T17:39:38.307Z,100756.02
2019-02-02T17:43:42.255Z,100762.20
2019-02-02T17:47:45.753Z,100768.23
2019-02-02T17:51:49.348Z,100777.37
2019-02-02T17:55:54.266Z,100767.78
2019-02-02T17:59:58.713Z,100752.55
2019-02-02T18:04:04.731Z,100735.22
2019-02-02T18:08:08.818Z,100723.45
2019-02-02T18:12:11.927Z,100730.84
2019-02-02T18:16:15.267Z,100723.45
2019-02-02T18:20:17.916Z,100730.41
2019-02-02T18:24:20.411Z,100732.57
2019-02-02T18:28:22.910Z,100746.08
2019-02-02T18:32:25.376Z,100741.23
2019-02-02T18:36:27.916Z,100722.05
2019-02-02T18:40:30.376Z,100719.95
2019-02-02T18:44:32.801Z,100706.89
2019-02-02T18:48:35.790Z,100722.95
2019-02-02T18:52:38.486Z,100714.28
2019-02-02T18:56:40.977Z,100726.93
2019-02-02T19:00:44.900Z,100707.75
2019-02-02T19:04:47.403Z,100697.74
2019-02-02T19:08:50.263Z,100690.28
2019-02-02T19:12:52.822Z,100675.98
2019-02-02T19:17:01.205Z,100673.78
2019-02-02T19:20:59.852Z,100665.08
2019-02-02T19:25:02.292Z,100665.11
2019-02-02T19:29:05.278Z,100666.48
2019-02-02T19:33:08.142Z,100664.42
2019-02-02T19:37:11.685Z,100665.51
2019-02-02T19:41:14.215Z,100670.06
2019-02-02T19:45:19.382Z,100657.64
2019-02-02T19:49:22.034Z,100652.58
2019-02-02T19:53:24.581Z,100654.88
2019-02-02T19:57:27.902Z,100651.11
2019-02-02T20:01:30.777Z,100661.69
2019-02-02T20:05:33.538Z,100656.17
2019-02-02T20:09:36.866Z,100653.09
2019-02-02T20:13:39.838Z,100641.34
2019-02-02T20:17:45.634Z,100650.09
2019-02-02T20:21:47.268Z,100652.64
2019-02-02T20:25:49.882Z,100650.44
2019-02-02T20:29:52.303Z,100646.46
2019-02-02T20:33:54.788Z,100630.35
2019-02-02T20:37:57.316Z,100634.59
2019-02-02T20:42:00.086Z,100638.44
2019-02-02T20:46:02.505Z,100625.70
2019-02-02T20:50:05.667Z,100622.10
2019-02-02T20:54:08.198Z,100625.48
2019-02-02T20:58:10.829Z,100616.27
2019-02-02T21:02:13.368Z,100606.14
2019-02-02T21:06:16.027Z,100611.71
2019-02-02T21:10:21.992Z,100602.47
2019-02-02T21:14:24.587Z,100602.47
2019-02-02T21:18:27.043Z,100602.77
2019-02-02T21:22:29.744Z,100605.51
2019-02-02T21:26:32.523Z,100603.92
2019-02-02T21:30:36.518Z,100597.84
2019-02-02T21:34:39.206Z,100586.63
2019-02-02T21:38:41.838Z,100575.39
2019-02-02T21:42:44.531Z,100575.14
2019-02-02T21:46:47.057Z,100585.94
2019-02-02T21:50:49.699Z,100573.84
2019-02-02T21:54:52.167Z,100577.28
2019-02-02T21:58:54.625Z,100559.95
2019-02-02T22:02:57.126Z,100560.98
2019-02-02T22:06:59.542Z,100556.59
2019-02-02T22:11:02.447Z,100551.84
2019-02-02T22:15:06.368Z,100550.06
2019-02-02T22:19:09.104Z,100538.70
2019-02-02T22:23:11.731Z,100524.62
2019-02-02T22:27:14.212Z,100523.27
2019-02-02T22:31:16.635Z,100528.08
2019-02-02T22:35:19.191Z,100532.52
2019-02-02T22:39:21.645Z,100529.39
2019-02-02T22:43:24.635Z,100525.82
2019-02-02T22:47:28.017Z,100516.75
2019-02-02T22:51:32.331Z,100520.56
2019-02-02T22:55:35.122Z,100514.48
2019-02-02T22:59:37.612Z,100520.56
2019-02-02T23:03:53.206Z,100524.06
2019-02-02T23:08:16.642Z,100522.83
2019-02-02T23:13:01.227Z,100527.12
2019-02-02T23:17:04.117Z,100517.89
2019-02-02T23:21:07.956Z,100515.69
2019-02-02T23:25:10.649Z,100516.99
2019-02-02T23:29:13.062Z,100511.80
2019-02-02T23:33:15.542Z,100495.25
2019-02-02T23:37:18.013Z,100503.88
2019-02-02T23:41:21.983Z,100495.25
2019-02-02T23:45:24.665Z,100492.19
2019-02-02T23:49:27.225Z,100503.88
2019-02-02T23:53:30.347Z,100489.06
2019-02-02T23:57:32.835Z,100486.45
